sensor_id;sensor_type;location;lat;lon;timestamp;P1;durP1;ratioP1;P2;durP2;ratioP2
13592;SDS011;6867;50.998;4.250;2022-09-23T00:00:44;9.40;;;6.67;;
13592;SDS011;6867;50.998;4.250;2022-09-23T00:03:12;9.87;;;7.23;;
13592;SDS011;6867;50.998;4.250;2022-09-23T00:05:40;8.47;;;6.40;;
13592;SDS011;6867;50.998;4.250;2022-09-23T00:08:07;9.50;;;6.93;;
13592;SDS011;6867;50.998;4.250;2022-09-23T00:10:37;7.37;;;6.50;;
13592;SDS011;6867;50.998;4.250;2022-09-23T00:13:04;8.10;;;6.77;;
13592;SDS011;6867;50.998;4.250;2022-09-23T00:15:36;7.50;;;6.13;;
13592;SDS011;6867;50.998;4.250;2022-09-23T00:18:05;7.03;;;5.70;;
13592;SDS011;6867;50.998;4.250;2022-09-23T00:20:32;8.60;;;6.83;;
13592;SDS011;6867;50.998;4.250;2022-09-23T00:22:59;9.13;;;6.60;;
13592;SDS011;6867;50.998;4.250;2022-09-23T00:25:26;8.00;;;5.93;;
13592;SDS011;6867;50.998;4.250;2022-09-23T00:27:54;8.47;;;6.70;;
13592;SDS011;6867;50.998;4.250;2022-09-23T00:30:21;8.23;;;6.57;;
13592;SDS011;6867;50.998;4.250;2022-09-23T00:32:48;8.63;;;6.17;;
13592;SDS011;6867;50.998;4.250;2022-09-23T00:35:18;9.90;;;7.00;;
13592;SDS011;6867;50.998;4.250;2022-09-23T00:37:45;10.83;;;7.23;;
13592;SDS011;6867;50.998;4.250;2022-09-23T00:40:11;10.00;;;6.73;;
13592;SDS011;6867;50.998;4.250;2022-09-23T00:42:48;8.57;;;6.83;;
13592;SDS011;6867;50.998;4.250;2022-09-23T00:52:01;8.53;;;6.10;;
13592;SDS011;6867;50.998;4.250;2022-09-23T00:54:32;7.00;;;6.30;;
13592;SDS011;6867;50.998;4.250;2022-09-23T00:56:58;12.47;;;6.17;;
13592;SDS011;6867;50.998;4.250;2022-09-23T00:59:27;8.00;;;6.03;;
13592;SDS011;6867;50.998;4.250;2022-09-23T01:01:54;7.97;;;6.10;;
13592;SDS011;6867;50.998;4.250;2022-09-23T01:04:23;9.60;;;6.23;;
13592;SDS011;6867;50.998;4.250;2022-09-23T01:06:52;9.17;;;6.30;;
13592;SDS011;6867;50.998;4.250;2022-09-23T01:09:20;8.27;;;6.13;;
13592;SDS011;6867;50.998;4.250;2022-09-23T01:11:48;10.37;;;6.20;;
13592;SDS011;6867;50.998;4.250;2022-09-23T01:14:24;9.47;;;6.83;;
13592;SDS011;6867;50.998;4.250;2022-09-23T01:17:03;9.87;;;6.70;;
13592;SDS011;6867;50.998;4.250;2022-09-23T01:19:40;8.00;;;6.23;;
13592;SDS011;6867;50.998;4.250;2022-09-23T01:22:32;7.67;;;6.60;;
13592;SDS011;6867;50.998;4.250;2022-09-23T01:25:10;7.17;;;5.57;;
13592;SDS011;6867;50.998;4.250;2022-09-23T01:27:58;8.63;;;6.63;;
13592;SDS011;6867;50.998;4.250;2022-09-23T01:30:37;7.77;;;5.97;;
13592;SDS011;6867;50.998;4.250;2022-09-23T01:33:12;8.47;;;5.97;;
13592;SDS011;6867;50.998;4.250;2022-09-23T01:35:50;5.73;;;5.13;;
13592;SDS011;6867;50.998;4.250;2022-09-23T01:38:31;7.20;;;5.37;;
13592;SDS011;6867;50.998;4.250;2022-09-23T01:41:06;7.77;;;5.40;;
13592;SDS011;6867;50.998;4.250;2022-09-23T01:43:41;6.53;;;5.10;;
13592;SDS011;6867;50.998;4.250;2022-09-23T01:46:16;8.13;;;5.90;;
13592;SDS011;6867;50.998;4.250;2022-09-23T02:09:03;6.47;;;5.40;;
13592;SDS011;6867;50.998;4.250;2022-09-23T02:11:34;8.80;;;5.53;;
13592;SDS011;6867;50.998;4.250;2022-09-23T02:14:05;6.63;;;5.50;;
13592;SDS011;6867;50.998;4.250;2022-09-23T03:07:12;7.77;;;5.83;;
13592;SDS011;6867;50.998;4.250;2022-09-23T03:09:45;7.67;;;5.63;;
13592;SDS011;6867;50.998;4.250;2022-09-23T03:12:24;8.23;;;5.60;;
13592;SDS011;6867;50.998;4.250;2022-09-23T03:15:00;7.33;;;6.27;;
13592;SDS011;6867;50.998;4.250;2022-09-23T03:17:35;9.67;;;6.40;;
13592;SDS011;6867;50.998;4.250;2022-09-23T03:20:11;7.50;;;6.40;;
13592;SDS011;6867;50.998;4.250;2022-09-23T03:22:41;7.20;;;5.67;;
13592;SDS011;6867;50.998;4.250;2022-09-23T03:25:12;9.63;;;5.93;;
13592;SDS011;6867;50.998;4.250;2022-09-23T03:27:41;7.33;;;5.53;;
13592;SDS011;6867;50.998;4.250;2022-09-23T03:30:10;7.07;;;5.57;;
13592;SDS011;6867;50.998;4.250;2022-09-23T03:32:38;7.97;;;5.43;;
13592;SDS011;6867;50.998;4.250;2022-09-23T03:35:10;9.37;;;6.00;;
13592;SDS011;6867;50.998;4.250;2022-09-23T03:37:39;7.57;;;6.00;;
13592;SDS011;6867;50.998;4.250;2022-09-23T03:40:14;7.30;;;6.17;;
13592;SDS011;6867;50.998;4.250;2022-09-23T03:42:44;10.90;;;5.73;;
13592;SDS011;6867;50.998;4.250;2022-09-23T03:45:13;7.27;;;5.67;;
13592;SDS011;6867;50.998;4.250;2022-09-23T03:47:44;8.27;;;6.27;;
13592;SDS011;6867;50.998;4.250;2022-09-23T03:50:13;7.30;;;6.27;;
13592;SDS011;6867;50.998;4.250;2022-09-23T03:52:41;8.73;;;6.27;;
13592;SDS011;6867;50.998;4.250;2022-09-23T03:55:08;8.37;;;5.67;;
13592;SDS011;6867;50.998;4.250;2022-09-23T03:57:35;7.37;;;5.93;;
13592;SDS011;6867;50.998;4.250;2022-09-23T04:00:03;6.83;;;5.43;;
13592;SDS011;6867;50.998;4.250;2022-09-23T04:02:30;7.63;;;6.10;;
13592;SDS011;6867;50.998;4.250;2022-09-23T04:04:57;7.13;;;6.10;;
13592;SDS011;6867;50.998;4.250;2022-09-23T04:07:26;8.73;;;5.47;;
13592;SDS011;6867;50.998;4.250;2022-09-23T04:09:53;8.70;;;5.77;;
13592;SDS011;6867;50.998;4.250;2022-09-23T04:12:19;8.40;;;5.97;;
13592;SDS011;6867;50.998;4.250;2022-09-23T04:14:46;7.93;;;5.37;;
13592;SDS011;6867;50.998;4.250;2022-09-23T04:17:13;6.60;;;5.90;;
13592;SDS011;6867;50.998;4.250;2022-09-23T04:19:40;7.60;;;5.23;;
13592;SDS011;6867;50.998;4.250;2022-09-23T04:22:07;6.53;;;5.33;;
13592;SDS011;6867;50.998;4.250;2022-09-23T04:24:35;8.10;;;5.83;;
13592;SDS011;6867;50.998;4.250;2022-09-23T04:27:02;10.53;;;6.20;;
13592;SDS011;6867;50.998;4.250;2022-09-23T04:29:29;8.43;;;5.60;;
13592;SDS011;6867;50.998;4.250;2022-09-23T04:31:56;8.67;;;6.47;;
13592;SDS011;6867;50.998;4.250;2022-09-23T04:34:22;8.60;;;5.70;;
13592;SDS011;6867;50.998;4.250;2022-09-23T04:36:49;10.67;;;5.93;;
13592;SDS011;6867;50.998;4.250;2022-09-23T04:39:16;10.30;;;5.93;;
13592;SDS011;6867;50.998;4.250;2022-09-23T04:41:44;6.53;;;5.20;;
13592;SDS011;6867;50.998;4.250;2022-09-23T04:44:11;7.67;;;5.50;;
13592;SDS011;6867;50.998;4.250;2022-09-23T04:46:39;7.13;;;5.30;;
13592;SDS011;6867;50.998;4.250;2022-09-23T04:49:06;7.93;;;5.30;;
13592;SDS011;6867;50.998;4.250;2022-09-23T04:51:33;8.53;;;6.03;;
13592;SDS011;6867;50.998;4.250;2022-09-23T04:54:00;8.27;;;5.50;;
13592;SDS011;6867;50.998;4.250;2022-09-23T04:56:27;8.17;;;5.50;;
13592;SDS011;6867;50.998;4.250;2022-09-23T04:58:58;6.20;;;5.17;;
13592;SDS011;6867;50.998;4.250;2022-09-23T05:01:26;5.83;;;5.23;;
13592;SDS011;6867;50.998;4.250;2022-09-23T05:03:55;6.87;;;5.07;;
13592;SDS011;6867;50.998;4.250;2022-09-23T05:06:26;8.23;;;4.90;;
13592;SDS011;6867;50.998;4.250;2022-09-23T05:08:53;6.80;;;5.00;;
13592;SDS011;6867;50.998;4.250;2022-09-23T05:11:21;6.87;;;5.30;;
13592;SDS011;6867;50.998;4.250;2022-09-23T05:13:48;8.50;;;5.50;;
13592;SDS011;6867;50.998;4.250;2022-09-23T05:16:18;7.93;;;5.73;;
13592;SDS011;6867;50.998;4.250;2022-09-23T05:18:47;7.83;;;5.63;;
13592;SDS011;6867;50.998;4.250;2022-09-23T05:21:15;8.90;;;5.03;;
13592;SDS011;6867;50.998;4.250;2022-09-23T05:23:45;9.33;;;5.23;;
13592;SDS011;6867;50.998;4.250;2022-09-23T05:26:13;7.57;;;5.20;;
13592;SDS011;6867;50.998;4.250;2022-09-23T05:28:40;6.40;;;4.77;;
13592;SDS011;6867;50.998;4.250;2022-09-23T05:31:07;6.43;;;5.03;;
13592;SDS011;6867;50.998;4.250;2022-09-23T05:33:37;8.57;;;5.37;;
13592;SDS011;6867;50.998;4.250;2022-09-23T05:36:05;5.73;;;5.00;;
13592;SDS011;6867;50.998;4.250;2022-09-23T05:38:32;7.67;;;4.93;;
13592;SDS011;6867;50.998;4.250;2022-09-23T05:41:00;9.33;;;5.10;;
13592;SDS011;6867;50.998;4.250;2022-09-23T05:43:28;10.30;;;5.53;;
13592;SDS011;6867;50.998;4.250;2022-09-23T05:46:00;9.77;;;4.77;;
13592;SDS011;6867;50.998;4.250;2022-09-23T05:48:28;6.57;;;4.93;;
13592;SDS011;6867;50.998;4.250;2022-09-23T05:50:57;7.77;;;5.37;;
13592;SDS011;6867;50.998;4.250;2022-09-23T05:53:24;8.17;;;5.50;;
13592;SDS011;6867;50.998;4.250;2022-09-23T05:55:51;10.60;;;5.90;;
13592;SDS011;6867;50.998;4.250;2022-09-23T05:58:18;8.07;;;4.77;;
13592;SDS011;6867;50.998;4.250;2022-09-23T06:00:45;6.43;;;5.40;;
13592;SDS011;6867;50.998;4.250;2022-09-23T06:03:13;8.90;;;4.70;;
13592;SDS011;6867;50.998;4.250;2022-09-23T06:05:41;6.90;;;5.53;;
13592;SDS011;6867;50.998;4.250;2022-09-23T06:08:09;10.03;;;5.27;;
13592;SDS011;6867;50.998;4.250;2022-09-23T06:10:36;9.70;;;6.23;;
13592;SDS011;6867;50.998;4.250;2022-09-23T06:13:04;7.43;;;6.20;;
13592;SDS011;6867;50.998;4.250;2022-09-23T06:15:31;9.63;;;5.87;;
13592;SDS011;6867;50.998;4.250;2022-09-23T06:17:58;8.10;;;5.47;;
13592;SDS011;6867;50.998;4.250;2022-09-23T06:20:25;6.33;;;5.07;;
13592;SDS011;6867;50.998;4.250;2022-09-23T06:22:52;6.73;;;4.90;;
13592;SDS011;6867;50.998;4.250;2022-09-23T06:25:21;7.37;;;5.07;;
13592;SDS011;6867;50.998;4.250;2022-09-23T06:27:51;9.00;;;5.00;;
13592;SDS011;6867;50.998;4.250;2022-09-23T06:30:19;5.40;;;4.27;;
13592;SDS011;6867;50.998;4.250;2022-09-23T06:32:47;7.17;;;4.93;;
13592;SDS011;6867;50.998;4.250;2022-09-23T06:35:16;8.03;;;5.70;;
13592;SDS011;6867;50.998;4.250;2022-09-23T06:37:43;10.10;;;6.23;;
13592;SDS011;6867;50.998;4.250;2022-09-23T06:40:10;7.40;;;5.50;;
13592;SDS011;6867;50.998;4.250;2022-09-23T06:42:39;7.33;;;4.90;;
13592;SDS011;6867;50.998;4.250;2022-09-23T06:45:06;5.27;;;4.13;;
13592;SDS011;6867;50.998;4.250;2022-09-23T06:47:38;8.37;;;4.50;;
13592;SDS011;6867;50.998;4.250;2022-09-23T06:50:06;6.97;;;4.20;;
13592;SDS011;6867;50.998;4.250;2022-09-23T06:52:33;5.47;;;4.20;;
13592;SDS011;6867;50.998;4.250;2022-09-23T06:55:00;7.17;;;4.27;;
13592;SDS011;6867;50.998;4.250;2022-09-23T06:57:27;8.33;;;4.63;;
13592;SDS011;6867;50.998;4.250;2022-09-23T06:59:55;5.47;;;4.30;;
13592;SDS011;6867;50.998;4.250;2022-09-23T07:02:23;7.23;;;4.53;;
13592;SDS011;6867;50.998;4.250;2022-09-23T07:04:50;5.17;;;3.63;;
13592;SDS011;6867;50.998;4.250;2022-09-23T07:07:16;4.47;;;3.50;;
13592;SDS011;6867;50.998;4.250;2022-09-23T07:09:43;6.33;;;4.00;;
13592;SDS011;6867;50.998;4.250;2022-09-23T07:12:10;6.30;;;4.63;;
13592;SDS011;6867;50.998;4.250;2022-09-23T07:14:38;8.38;;;4.00;;
13592;SDS011;6867;50.998;4.250;2022-09-23T07:17:06;6.47;;;3.90;;
13592;SDS011;6867;50.998;4.250;2022-09-23T07:19:33;6.80;;;3.87;;
13592;SDS011;6867;50.998;4.250;2022-09-23T07:22:00;5.40;;;3.93;;
13592;SDS011;6867;50.998;4.250;2022-09-23T07:24:27;5.63;;;4.30;;
13592;SDS011;6867;50.998;4.250;2022-09-23T07:26:53;5.77;;;4.10;;
13592;SDS011;6867;50.998;4.250;2022-09-23T07:29:20;8.48;;;3.67;;
13592;SDS011;6867;50.998;4.250;2022-09-23T07:31:47;6.63;;;3.78;;
13592;SDS011;6867;50.998;4.250;2022-09-23T07:34:15;8.90;;;3.85;;
13592;SDS011;6867;50.998;4.250;2022-09-23T07:36:42;6.32;;;3.88;;
13592;SDS011;6867;50.998;4.250;2022-09-23T07:39:10;9.10;;;3.80;;
13592;SDS011;6867;50.998;4.250;2022-09-23T07:41:38;8.05;;;4.00;;
13592;SDS011;6867;50.998;4.250;2022-09-23T07:44:05;6.15;;;4.00;;
13592;SDS011;6867;50.998;4.250;2022-09-23T07:46:33;8.45;;;3.72;;
13592;SDS011;6867;50.998;4.250;2022-09-23T07:49:01;11.30;;;4.07;;
13592;SDS011;6867;50.998;4.250;2022-09-23T07:51:30;7.97;;;3.78;;
13592;SDS011;6867;50.998;4.250;2022-09-23T07:53:58;8.35;;;4.07;;
13592;SDS011;6867;50.998;4.250;2022-09-23T07:56:26;7.32;;;3.78;;
13592;SDS011;6867;50.998;4.250;2022-09-23T07:58:54;7.68;;;3.80;;
13592;SDS011;6867;50.998;4.250;2022-09-23T08:01:28;6.45;;;3.60;;
13592;SDS011;6867;50.998;4.250;2022-09-23T08:03:57;6.93;;;4.18;;
13592;SDS011;6867;50.998;4.250;2022-09-23T08:06:25;7.45;;;3.90;;
13592;SDS011;6867;50.998;4.250;2022-09-23T08:08:55;6.78;;;3.58;;
13592;SDS011;6867;50.998;4.250;2022-09-23T08:11:22;5.90;;;3.75;;
13592;SDS011;6867;50.998;4.250;2022-09-23T08:13:49;7.22;;;3.65;;
13592;SDS011;6867;50.998;4.250;2022-09-23T08:16:17;8.43;;;3.65;;
13592;SDS011;6867;50.998;4.250;2022-09-23T08:18:44;8.82;;;4.35;;
13592;SDS011;6867;50.998;4.250;2022-09-23T08:21:11;5.55;;;3.70;;
13592;SDS011;6867;50.998;4.250;2022-09-23T08:23:38;8.35;;;3.58;;
13592;SDS011;6867;50.998;4.250;2022-09-23T08:26:06;8.07;;;3.55;;
13592;SDS011;6867;50.998;4.250;2022-09-23T08:28:33;7.18;;;3.85;;
13592;SDS011;6867;50.998;4.250;2022-09-23T08:31:00;8.27;;;3.75;;
13592;SDS011;6867;50.998;4.250;2022-09-23T08:33:26;5.35;;;3.97;;
13592;SDS011;6867;50.998;4.250;2022-09-23T08:35:57;7.00;;;3.80;;
13592;SDS011;6867;50.998;4.250;2022-09-23T08:38:24;4.93;;;3.17;;
13592;SDS011;6867;50.998;4.250;2022-09-23T08:40:51;5.88;;;3.38;;
13592;SDS011;6867;50.998;4.250;2022-09-23T08:43:23;5.22;;;4.20;;
13592;SDS011;6867;50.998;4.250;2022-09-23T08:45:53;5.22;;;3.25;;
13592;SDS011;6867;50.998;4.250;2022-09-23T08:48:24;6.35;;;3.47;;
13592;SDS011;6867;50.998;4.250;2022-09-23T08:50:55;4.80;;;3.03;;
13592;SDS011;6867;50.998;4.250;2022-09-23T08:53:27;4.32;;;3.60;;
13592;SDS011;6867;50.998;4.250;2022-09-23T08:55:57;6.50;;;3.67;;
13592;SDS011;6867;50.998;4.250;2022-09-23T08:58:32;6.63;;;3.65;;
13592;SDS011;6867;50.998;4.250;2022-09-23T09:01:12;5.07;;;3.65;;
13592;SDS011;6867;50.998;4.250;2022-09-23T09:03:48;7.22;;;3.72;;
13592;SDS011;6867;50.998;4.250;2022-09-23T09:06:19;6.13;;;3.83;;
13592;SDS011;6867;50.998;4.250;2022-09-23T09:08:55;5.28;;;4.07;;
13592;SDS011;6867;50.998;4.250;2022-09-23T09:11:25;7.55;;;3.47;;
13592;SDS011;6867;50.998;4.250;2022-09-23T09:14:01;6.40;;;3.70;;
13592;SDS011;6867;50.998;4.250;2022-09-23T09:16:48;6.63;;;3.15;;
13592;SDS011;6867;50.998;4.250;2022-09-23T09:19:24;6.78;;;3.65;;
13592;SDS011;6867;50.998;4.250;2022-09-23T09:22:09;4.47;;;3.00;;
13592;SDS011;6867;50.998;4.250;2022-09-23T09:24:41;6.10;;;3.13;;
13592;SDS011;6867;50.998;4.250;2022-09-23T09:27:12;4.93;;;3.40;;
13592;SDS011;6867;50.998;4.250;2022-09-23T09:29:40;4.65;;;3.28;;
13592;SDS011;6867;50.998;4.250;2022-09-23T09:32:11;7.05;;;3.65;;
13592;SDS011;6867;50.998;4.250;2022-09-23T09:34:48;7.40;;;3.90;;
13592;SDS011;6867;50.998;4.250;2022-09-23T09:37:21;7.90;;;3.47;;
13592;SDS011;6867;50.998;4.250;2022-09-23T09:39:50;5.28;;;3.50;;
13592;SDS011;6867;50.998;4.250;2022-09-23T09:42:18;5.38;;;3.47;;
13592;SDS011;6867;50.998;4.250;2022-09-23T09:44:50;4.72;;;3.10;;
13592;SDS011;6867;50.998;4.250;2022-09-23T09:47:26;5.75;;;3.47;;
13592;SDS011;6867;50.998;4.250;2022-09-23T09:50:11;8.82;;;3.92;;
13592;SDS011;6867;50.998;4.250;2022-09-23T09:52:45;6.50;;;4.28;;
13592;SDS011;6867;50.998;4.250;2022-09-23T09:55:23;5.85;;;3.83;;
13592;SDS011;6867;50.998;4.250;2022-09-23T09:57:51;7.53;;;4.38;;
13592;SDS011;6867;50.998;4.250;2022-09-23T10:00:35;6.90;;;4.00;;
13592;SDS011;6867;50.998;4.250;2022-09-23T10:03:18;6.03;;;3.97;;
13592;SDS011;6867;50.998;4.250;2022-09-23T10:05:50;4.20;;;3.50;;
13592;SDS011;6867;50.998;4.250;2022-09-23T10:08:21;8.70;;;3.20;;
13592;SDS011;6867;50.998;4.250;2022-09-23T10:10:51;7.15;;;3.78;;
13592;SDS011;6867;50.998;4.250;2022-09-23T10:13:25;5.50;;;3.60;;
13592;SDS011;6867;50.998;4.250;2022-09-23T10:15:55;7.55;;;3.30;;
13592;SDS011;6867;50.998;4.250;2022-09-23T10:18:26;7.55;;;3.63;;
13592;SDS011;6867;50.998;4.250;2022-09-23T10:20:59;6.78;;;3.92;;
13592;SDS011;6867;50.998;4.250;2022-09-23T10:23:31;6.30;;;3.45;;
13592;SDS011;6867;50.998;4.250;2022-09-23T10:25:58;7.30;;;3.05;;
13592;SDS011;6867;50.998;4.250;2022-09-23T10:28:40;7.40;;;3.50;;
13592;SDS011;6867;50.998;4.250;2022-09-23T10:31:13;5.63;;;3.47;;
13592;SDS011;6867;50.998;4.250;2022-09-23T10:33:46;9.27;;;3.42;;
13592;SDS011;6867;50.998;4.250;2022-09-23T10:36:14;5.35;;;3.30;;
13592;SDS011;6867;50.998;4.250;2022-09-23T10:38:41;4.57;;;3.38;;
13592;SDS011;6867;50.998;4.250;2022-09-23T10:41:12;7.25;;;3.67;;
13592;SDS011;6867;50.998;4.250;2022-09-23T10:44:03;5.70;;;3.38;;
13592;SDS011;6867;50.998;4.250;2022-09-23T10:47:01;4.43;;;3.70;;
13592;SDS011;6867;50.998;4.250;2022-09-23T10:52:31;4.47;;;3.45;;
13592;SDS011;6867;50.998;4.250;2022-09-23T10:55:15;5.45;;;2.83;;
13592;SDS011;6867;50.998;4.250;2022-09-23T10:58:03;5.22;;;3.05;;
13592;SDS011;6867;50.998;4.250;2022-09-23T11:00:42;5.32;;;3.08;;
13592;SDS011;6867;50.998;4.250;2022-09-23T11:03:23;3.15;;;2.85;;
13592;SDS011;6867;50.998;4.250;2022-09-23T11:06:14;3.80;;;2.80;;
13592;SDS011;6867;50.998;4.250;2022-09-23T11:08:55;4.05;;;2.67;;
13592;SDS011;6867;50.998;4.250;2022-09-23T11:11:36;4.28;;;2.78;;
13592;SDS011;6867;50.998;4.250;2022-09-23T11:14:14;4.35;;;3.17;;
13592;SDS011;6867;50.998;4.250;2022-09-23T11:20:08;3.38;;;2.67;;
13592;SDS011;6867;50.998;4.250;2022-09-23T11:22:59;6.30;;;3.20;;
13592;SDS011;6867;50.998;4.250;2022-09-23T11:25:45;5.65;;;2.97;;
13592;SDS011;6867;50.998;4.250;2022-09-23T11:28:31;6.55;;;3.42;;
13592;SDS011;6867;50.998;4.250;2022-09-23T11:31:13;6.22;;;3.10;;
13592;SDS011;6867;50.998;4.250;2022-09-23T11:33:55;6.88;;;3.17;;
13592;SDS011;6867;50.998;4.250;2022-09-23T11:36:33;4.47;;;2.90;;
13592;SDS011;6867;50.998;4.250;2022-09-23T11:39:05;4.20;;;2.70;;
13592;SDS011;6867;50.998;4.250;2022-09-23T11:41:37;8.55;;;3.72;;
13592;SDS011;6867;50.998;4.250;2022-09-23T11:44:07;6.88;;;2.50;;
13592;SDS011;6867;50.998;4.250;2022-09-23T11:46:41;7.53;;;3.05;;
13592;SDS011;6867;50.998;4.250;2022-09-23T11:49:12;6.07;;;3.05;;
13592;SDS011;6867;50.998;4.250;2022-09-23T11:51:47;5.82;;;2.80;;
13592;SDS011;6867;50.998;4.250;2022-09-23T11:54:23;4.63;;;2.70;;
13592;SDS011;6867;50.998;4.250;2022-09-23T11:56:55;8.55;;;2.78;;
13592;SDS011;6867;50.998;4.250;2022-09-23T11:59:27;4.28;;;2.97;;
13592;SDS011;6867;50.998;4.250;2022-09-23T12:02:02;4.55;;;2.70;;
13592;SDS011;6867;50.998;4.250;2022-09-23T12:04:36;6.60;;;2.60;;
13592;SDS011;6867;50.998;4.250;2022-09-23T12:07:09;5.60;;;2.97;;
13592;SDS011;6867;50.998;4.250;2022-09-23T12:09:41;5.78;;;2.97;;
13592;SDS011;6867;50.998;4.250;2022-09-23T12:12:22;7.10;;;2.63;;
13592;SDS011;6867;50.998;4.250;2022-09-23T12:14:56;3.42;;;2.85;;
13592;SDS011;6867;50.998;4.250;2022-09-23T12:17:36;4.90;;;3.00;;
13592;SDS011;6867;50.998;4.250;2022-09-23T12:20:24;4.18;;;2.53;;
13592;SDS011;6867;50.998;4.250;2022-09-23T12:23:12;3.80;;;2.88;;
13592;SDS011;6867;50.998;4.250;2022-09-23T12:25:52;7.07;;;3.33;;
13592;SDS011;6867;50.998;4.250;2022-09-23T12:28:23;4.28;;;2.90;;
13592;SDS011;6867;50.998;4.250;2022-09-23T12:30:54;8.45;;;3.40;;
13592;SDS011;6867;50.998;4.250;2022-09-23T12:33:24;4.30;;;2.58;;
13592;SDS011;6867;50.998;4.250;2022-09-23T12:35:53;3.58;;;2.72;;
13592;SDS011;6867;50.998;4.250;2022-09-23T12:38:23;3.67;;;2.97;;
13592;SDS011;6867;50.998;4.250;2022-09-23T12:40:57;3.95;;;3.17;;
13592;SDS011;6867;50.998;4.250;2022-09-23T12:43:28;5.05;;;3.42;;
13592;SDS011;6867;50.998;4.250;2022-09-23T12:46:15;5.22;;;3.10;;
13592;SDS011;6867;50.998;4.250;2022-09-23T12:48:47;5.63;;;3.03;;
13592;SDS011;6867;50.998;4.250;2022-09-23T12:51:25;5.32;;;3.78;;
13592;SDS011;6867;50.998;4.250;2022-09-23T12:56:56;5.65;;;3.50;;
13592;SDS011;6867;50.998;4.250;2022-09-23T12:59:25;7.50;;;3.97;;
13592;SDS011;6867;50.998;4.250;2022-09-23T13:01:53;4.57;;;3.42;;
13592;SDS011;6867;50.998;4.250;2022-09-23T13:07:39;6.05;;;4.13;;
13592;SDS011;6867;50.998;4.250;2022-09-23T13:10:12;6.88;;;3.97;;
13592;SDS011;6867;50.998;4.250;2022-09-23T13:12:43;8.13;;;3.60;;
13592;SDS011;6867;50.998;4.250;2022-09-23T13:15:16;4.68;;;3.80;;
13592;SDS011;6867;50.998;4.250;2022-09-23T13:17:53;6.40;;;3.72;;
13592;SDS011;6867;50.998;4.250;2022-09-23T13:20:58;4.28;;;3.60;;
13592;SDS011;6867;50.998;4.250;2022-09-23T13:23:25;6.22;;;3.90;;
13592;SDS011;6867;50.998;4.250;2022-09-23T13:25:55;8.73;;;4.60;;
13592;SDS011;6867;50.998;4.250;2022-09-23T13:28:29;5.68;;;3.97;;
13592;SDS011;6867;50.998;4.250;2022-09-23T13:31:01;11.00;;;4.60;;
13592;SDS011;6867;50.998;4.250;2022-09-23T13:33:33;6.47;;;4.10;;
13592;SDS011;6867;50.998;4.250;2022-09-23T13:36:09;5.72;;;4.38;;
13592;SDS011;6867;50.998;4.250;2022-09-23T13:38:37;7.07;;;3.65;;
13592;SDS011;6867;50.998;4.250;2022-09-23T13:41:09;6.38;;;4.03;;
13592;SDS011;6867;50.998;4.250;2022-09-23T13:43:39;7.35;;;4.68;;
13592;SDS011;6867;50.998;4.250;2022-09-23T13:46:09;6.57;;;4.00;;
13592;SDS011;6867;50.998;4.250;2022-09-23T13:48:39;8.00;;;4.28;;
13592;SDS011;6867;50.998;4.250;2022-09-23T13:51:10;11.25;;;4.55;;
13592;SDS011;6867;50.998;4.250;2022-09-23T13:53:50;7.45;;;4.57;;
13592;SDS011;6867;50.998;4.250;2022-09-23T13:56:19;7.95;;;4.25;;
13592;SDS011;6867;50.998;4.250;2022-09-23T13:58:46;8.05;;;4.70;;
13592;SDS011;6867;50.998;4.250;2022-09-23T14:01:20;6.53;;;4.93;;
13592;SDS011;6867;50.998;4.250;2022-09-23T14:03:49;7.88;;;4.90;;
13592;SDS011;6867;50.998;4.250;2022-09-23T14:06:16;6.40;;;4.60;;
13592;SDS011;6867;50.998;4.250;2022-09-23T14:08:44;7.70;;;4.85;;
13592;SDS011;6867;50.998;4.250;2022-09-23T14:11:13;8.05;;;4.50;;
13592;SDS011;6867;50.998;4.250;2022-09-23T14:13:43;8.43;;;4.72;;
13592;SDS011;6867;50.998;4.250;2022-09-23T14:16:12;6.63;;;4.93;;
13592;SDS011;6867;50.998;4.250;2022-09-23T14:18:42;14.00;;;5.38;;
13592;SDS011;6867;50.998;4.250;2022-09-23T14:21:26;5.95;;;5.05;;
13592;SDS011;6867;50.998;4.250;2022-09-23T14:24:03;9.60;;;4.50;;
13592;SDS011;6867;50.998;4.250;2022-09-23T14:26:37;9.52;;;5.18;;
13592;SDS011;6867;50.998;4.250;2022-09-23T14:29:07;4.85;;;3.80;;
13592;SDS011;6867;50.998;4.250;2022-09-23T14:31:39;8.82;;;3.90;;
13592;SDS011;6867;50.998;4.250;2022-09-23T14:37:08;5.28;;;4.10;;
13592;SDS011;6867;50.998;4.250;2022-09-23T14:40:08;10.68;;;4.25;;
13592;SDS011;6867;50.998;4.250;2022-09-23T14:42:39;6.20;;;4.35;;
13592;SDS011;6867;50.998;4.250;2022-09-23T14:45:11;6.63;;;3.83;;
13592;SDS011;6867;50.998;4.250;2022-09-23T14:47:42;6.93;;;4.30;;
13592;SDS011;6867;50.998;4.250;2022-09-23T14:50:17;12.13;;;4.70;;
13592;SDS011;6867;50.998;4.250;2022-09-23T14:53:03;7.78;;;4.32;;
13592;SDS011;6867;50.998;4.250;2022-09-23T14:55:31;9.57;;;4.60;;
13592;SDS011;6867;50.998;4.250;2022-09-23T14:58:00;9.30;;;3.72;;
13592;SDS011;6867;50.998;4.250;2022-09-23T15:00:30;8.45;;;4.57;;
13592;SDS011;6867;50.998;4.250;2022-09-23T15:02:57;9.95;;;4.60;;
13592;SDS011;6867;50.998;4.250;2022-09-23T15:05:29;4.57;;;4.00;;
13592;SDS011;6867;50.998;4.250;2022-09-23T15:08:05;7.75;;;5.15;;
13592;SDS011;6867;50.998;4.250;2022-09-23T15:10:35;8.07;;;4.53;;
13592;SDS011;6867;50.998;4.250;2022-09-23T15:13:04;8.30;;;4.97;;
13592;SDS011;6867;50.998;4.250;2022-09-23T15:15:35;9.30;;;4.75;;
13592;SDS011;6867;50.998;4.250;2022-09-23T15:18:03;6.88;;;4.20;;
13592;SDS011;6867;50.998;4.250;2022-09-23T15:20:31;7.93;;;4.53;;
13592;SDS011;6867;50.998;4.250;2022-09-23T15:22:59;8.30;;;4.50;;
13592;SDS011;6867;50.998;4.250;2022-09-23T15:25:30;6.82;;;4.55;;
13592;SDS011;6867;50.998;4.250;2022-09-23T15:27:59;6.45;;;4.53;;
13592;SDS011;6867;50.998;4.250;2022-09-23T15:30:28;6.35;;;4.78;;
13592;SDS011;6867;50.998;4.250;2022-09-23T15:32:57;7.70;;;5.13;;
13592;SDS011;6867;50.998;4.250;2022-09-23T15:35:24;9.65;;;5.25;;
13592;SDS011;6867;50.998;4.250;2022-09-23T15:37:53;6.18;;;5.25;;
13592;SDS011;6867;50.998;4.250;2022-09-23T15:40:23;11.38;;;5.43;;
13592;SDS011;6867;50.998;4.250;2022-09-23T15:42:52;6.72;;;6.05;;
13592;SDS011;6867;50.998;4.250;2022-09-23T15:45:25;10.88;;;6.25;;
13592;SDS011;6867;50.998;4.250;2022-09-23T15:47:55;9.40;;;6.18;;
13592;SDS011;6867;50.998;4.250;2022-09-23T15:50:27;9.63;;;6.38;;
13592;SDS011;6867;50.998;4.250;2022-09-23T15:52:55;10.60;;;6.28;;
13592;SDS011;6867;50.998;4.250;2022-09-23T15:55:23;8.10;;;6.38;;
13592;SDS011;6867;50.998;4.250;2022-09-23T15:57:50;8.98;;;6.47;;
13592;SDS011;6867;50.998;4.250;2022-09-23T16:00:17;12.32;;;7.93;;
13592;SDS011;6867;50.998;4.250;2022-09-23T16:02:45;11.95;;;7.10;;
13592;SDS011;6867;50.998;4.250;2022-09-23T16:05:17;13.77;;;8.82;;
13592;SDS011;6867;50.998;4.250;2022-09-23T16:07:47;9.93;;;8.05;;
13592;SDS011;6867;50.998;4.250;2022-09-23T16:10:16;10.13;;;7.40;;
13592;SDS011;6867;50.998;4.250;2022-09-23T16:12:44;8.85;;;7.18;;
13592;SDS011;6867;50.998;4.250;2022-09-23T16:15:12;11.00;;;7.55;;
13592;SDS011;6867;50.998;4.250;2022-09-23T16:17:41;10.70;;;7.63;;
13592;SDS011;6867;50.998;4.250;2022-09-23T16:20:09;13.13;;;7.55;;
13592;SDS011;6867;50.998;4.250;2022-09-23T16:22:37;9.18;;;7.28;;
13592;SDS011;6867;50.998;4.250;2022-09-23T16:25:05;10.75;;;8.52;;
13592;SDS011;6867;50.998;4.250;2022-09-23T16:27:35;12.50;;;8.55;;
13592;SDS011;6867;50.998;4.250;2022-09-23T16:30:01;10.43;;;7.70;;
13592;SDS011;6867;50.998;4.250;2022-09-23T16:32:29;9.55;;;8.05;;
13592;SDS011;6867;50.998;4.250;2022-09-23T16:34:55;16.23;;;7.85;;
13592;SDS011;6867;50.998;4.250;2022-09-23T16:37:23;11.38;;;8.05;;
13592;SDS011;6867;50.998;4.250;2022-09-23T16:39:52;9.13;;;7.63;;
13592;SDS011;6867;50.998;4.250;2022-09-23T16:42:19;13.35;;;8.27;;
13592;SDS011;6867;50.998;4.250;2022-09-23T16:44:46;9.18;;;7.32;;
13592;SDS011;6867;50.998;4.250;2022-09-23T16:47:13;11.52;;;7.53;;
13592;SDS011;6867;50.998;4.250;2022-09-23T16:49:40;10.10;;;7.10;;
13592;SDS011;6867;50.998;4.250;2022-09-23T16:52:06;9.15;;;6.90;;
13592;SDS011;6867;50.998;4.250;2022-09-23T16:54:40;9.98;;;6.80;;
13592;SDS011;6867;50.998;4.250;2022-09-23T16:57:09;8.10;;;6.38;;